createdAt,value
2022-11-12T00:00:52.918Z,29.53
2022-11-12T00:03:42.161Z,28.93
2022-11-12T00:06:31.097Z,27.38
2022-11-12T00:09:20.592Z,28.77
2022-11-12T00:12:09.727Z,28.26
2022-11-12T00:14:58.982Z,28.01
2022-11-12T00:17:48.515Z,27.39
2022-11-12T00:20:37.804Z,28.01
2022-11-12T00:23:26.746Z,27.12
2022-11-12T00:26:15.425Z,26.74
2022-11-12T00:29:04.164Z,26.73
2022-11-12T00:31:53.705Z,27.79
2022-11-12T00:34:42.732Z,28.74
2022-11-12T00:37:33.486Z,27.85
2022-11-12T00:40:22.439Z,27.42
2022-11-12T00:43:11.412Z,27.34
2022-11-12T00:46:00.281Z,27.18
2022-11-12T00:48:49.095Z,27.97
2022-11-12T00:51:38.701Z,27.29
2022-11-12T00:54:27.433Z,27.18
2022-11-12T00:57:16.414Z,27.20
2022-11-12T01:00:07.227Z,25.88
2022-11-12T01:02:56.203Z,27.16
2022-11-12T01:05:45.435Z,28.35
2022-11-12T01:08:34.678Z,28.43
2022-11-12T01:11:29.442Z,28.11
2022-11-12T01:14:18.921Z,28.76
2022-11-12T01:17:08.195Z,28.55
2022-11-12T01:19:57.683Z,28.71
2022-11-12T01:22:46.422Z,28.29
2022-11-12T01:25:35.462Z,27.37
2022-11-12T01:28:25.120Z,26.85
2022-11-12T01:31:18.363Z,27.53
2022-11-12T01:34:09.831Z,28.01
2022-11-12T01:36:58.818Z,28.57
2022-11-12T01:39:47.750Z,28.60
2022-11-12T01:42:36.789Z,28.73
2022-11-12T01:45:26.091Z,28.52
2022-11-12T01:48:49.050Z,27.96
2022-11-12T01:51:43.840Z,28.39
2022-11-12T01:54:33.690Z,27.73
2022-11-12T01:57:33.461Z,27.40
2022-11-12T02:00:24.009Z,26.37
2022-11-12T02:03:18.035Z,25.48
2022-11-12T02:06:11.665Z,26.55
2022-11-12T02:09:00.638Z,26.16
2022-11-12T02:11:49.564Z,26.36
2022-11-12T02:14:38.421Z,26.33
2022-11-12T02:17:27.492Z,26.57
2022-11-12T02:20:18.262Z,27.36
2022-11-12T02:23:08.384Z,27.50
2022-11-12T02:25:57.658Z,26.99
2022-11-12T02:28:46.381Z,26.49
2022-11-12T02:31:35.748Z,26.50
2022-11-12T02:34:24.858Z,26.97
2022-11-12T02:37:13.519Z,26.06
2022-11-12T02:40:02.374Z,26.14
2022-11-12T02:42:51.792Z,26.78
2022-11-12T02:45:40.712Z,26.29
2022-11-12T02:48:29.872Z,26.19
2022-11-12T02:51:19.508Z,26.65
2022-11-12T02:54:08.721Z,26.52
2022-11-12T02:56:57.654Z,26.58
2022-11-12T02:59:46.624Z,26.97
2022-11-12T03:02:35.563Z,26.51
2022-11-12T03:05:24.753Z,25.66
2022-11-12T03:08:13.674Z,25.85
2022-11-12T03:11:11.385Z,26.64
2022-11-12T03:14:00.332Z,25.68
2022-11-12T03:16:49.377Z,25.61
2022-11-12T03:19:38.148Z,25.64
2022-11-12T03:22:27.662Z,25.56
2022-11-12T03:25:16.337Z,25.99
2022-11-12T03:28:08.583Z,25.63
2022-11-12T03:31:00.742Z,25.25
2022-11-12T03:33:49.384Z,25.40
2022-11-12T03:36:37.957Z,25.49
2022-11-12T03:39:26.717Z,25.97
2022-11-12T03:42:15.722Z,24.98
2022-11-12T03:45:04.716Z,25.86
2022-11-12T03:47:58.279Z,25.79
2022-11-12T03:50:47.285Z,25.94
2022-11-12T03:53:36.174Z,25.74
2022-11-12T03:56:27.501Z,25.94
2022-11-12T03:59:16.368Z,25.72
2022-11-12T04:02:05.400Z,25.77
2022-11-12T04:05:13.930Z,25.67
2022-11-12T04:08:39.857Z,25.95
2022-11-12T04:11:28.633Z,25.21
2022-11-12T04:14:17.307Z,25.13
2022-11-12T04:17:25.217Z,25.36
2022-11-12T04:20:32.341Z,25.26
2022-11-12T04:23:21.446Z,25.38
2022-11-12T04:26:25.494Z,25.92
2022-11-12T04:29:37.221Z,25.49
2022-11-12T04:32:27.419Z,25.23
2022-11-12T04:35:16.591Z,25.17
2022-11-12T04:38:05.698Z,25.15
2022-11-12T04:41:13.016Z,25.05
2022-11-12T04:44:20.160Z,24.02
2022-11-12T04:47:09.086Z,24.65
2022-11-12T04:49:58.152Z,24.38
2022-11-12T04:52:47.609Z,24.10
2022-11-12T04:55:36.807Z,24.15
2022-11-12T04:58:26.655Z,23.68
2022-11-12T05:01:15.634Z,23.10
2022-11-12T05:04:04.603Z,23.20
2022-11-12T05:06:53.620Z,23.01
2022-11-12T05:09:43.416Z,22.61
2022-11-12T05:12:34.009Z,22.37
2022-11-12T05:15:23.058Z,22.38
2022-11-12T05:18:11.868Z,22.09
2022-11-12T05:21:20.144Z,21.77
2022-11-12T05:24:17.822Z,21.51
2022-11-12T05:27:21.248Z,21.34
2022-11-12T05:30:10.021Z,21.45
2022-11-12T05:32:58.995Z,21.42
2022-11-12T05:35:47.693Z,21.52
2022-11-12T05:38:37.052Z,21.18
2022-11-12T05:41:26.020Z,21.50
2022-11-12T05:44:15.079Z,21.65
2022-11-12T05:47:03.966Z,21.16
2022-11-12T05:49:52.811Z,21.34
2022-11-12T05:52:42.467Z,21.63
2022-11-12T05:55:36.872Z,21.60
2022-11-12T05:58:26.150Z,20.92
2022-11-12T06:01:15.246Z,20.94
2022-11-12T06:04:03.912Z,20.78
2022-11-12T06:06:52.736Z,20.28
2022-11-12T06:09:41.567Z,20.50
2022-11-12T06:12:30.944Z,20.27
2022-11-12T06:15:20.132Z,20.13
2022-11-12T06:18:08.826Z,20.39
2022-11-12T06:21:20.695Z,20.19
2022-11-12T06:24:10.283Z,19.84
2022-11-12T06:26:58.839Z,20.04
2022-11-12T06:29:47.632Z,19.94
2022-11-12T06:32:36.768Z,20.01
2022-11-12T06:35:25.822Z,20.01
2022-11-12T06:38:14.803Z,19.60
2022-11-12T06:41:03.693Z,19.68
2022-11-12T06:43:53.082Z,19.73
2022-11-12T06:46:41.885Z,19.81
2022-11-12T06:49:31.375Z,19.30
2022-11-12T06:52:20.544Z,19.48
2022-11-12T06:55:13.031Z,19.08
2022-11-12T06:58:01.088Z,18.99
2022-11-12T07:00:49.783Z,19.14
2022-11-12T07:03:38.464Z,18.97
2022-11-12T07:06:27.349Z,18.94
2022-11-12T07:09:16.578Z,18.99
2022-11-12T07:12:05.839Z,18.94
2022-11-12T07:14:55.644Z,18.68
2022-11-12T07:17:48.004Z,18.71
2022-11-12T07:20:37.052Z,18.62
2022-11-12T07:23:25.879Z,18.63
2022-11-12T07:26:19.396Z,18.45
2022-11-12T07:29:08.812Z,18.43
2022-11-12T07:31:57.766Z,18.45
2022-11-12T07:34:46.418Z,18.48
2022-11-12T07:37:37.565Z,18.51
2022-11-12T07:40:26.468Z,18.52
2022-11-12T07:43:15.270Z,18.35
2022-11-12T07:46:17.060Z,18.35
2022-11-12T07:49:06.478Z,18.46
2022-11-12T07:51:55.553Z,18.62
2022-11-12T07:54:44.063Z,18.39
2022-11-12T07:57:35.583Z,18.43
2022-11-12T08:00:25.244Z,18.19
2022-11-12T08:03:14.396Z,18.23
2022-11-12T08:06:03.957Z,18.27
2022-11-12T08:08:57.100Z,18.12
2022-11-12T08:11:45.770Z,18.25
2022-11-12T08:14:34.474Z,18.35
2022-11-12T08:17:23.166Z,18.38
2022-11-12T08:20:12.358Z,18.22
2022-11-12T08:23:02.548Z,18.21
2022-11-12T08:25:52.019Z,18.22
2022-11-12T08:28:41.351Z,18.04
2022-11-12T08:31:30.624Z,17.96
2022-11-12T08:34:22.734Z,17.91
2022-11-12T08:37:12.072Z,17.83
2022-11-12T08:40:01.178Z,17.92
2022-11-12T08:42:49.734Z,17.78
2022-11-12T08:45:41.007Z,17.73
2022-11-12T08:48:31.432Z,17.66
2022-11-12T08:51:21.331Z,17.69
2022-11-12T08:54:10.848Z,17.48
2022-11-12T08:56:59.768Z,17.43
2022-11-12T08:59:48.315Z,17.52
2022-11-12T09:02:37.464Z,17.56
2022-11-12T09:05:26.517Z,17.60
2022-11-12T09:08:18.047Z,17.50
2022-11-12T09:11:07.285Z,17.65
2022-11-12T09:13:56.549Z,17.40
2022-11-12T09:16:48.593Z,17.58
2022-11-12T09:19:42.681Z,17.50
2022-11-12T09:22:34.975Z,17.56
2022-11-12T09:25:24.217Z,17.56
2022-11-12T09:28:16.140Z,17.54
2022-11-12T09:31:04.974Z,17.51
2022-11-12T09:33:53.587Z,17.51
2022-11-12T09:36:42.483Z,17.60
2022-11-12T09:39:31.889Z,17.70
2022-11-12T09:42:23.588Z,17.48
2022-11-12T09:45:29.548Z,17.61
2022-11-12T09:48:25.417Z,17.62
2022-11-12T09:51:23.244Z,17.42
2022-11-12T09:54:26.897Z,17.64
2022-11-12T09:57:15.868Z,17.71
2022-11-12T10:00:05.682Z,17.82
2022-11-12T10:03:05.338Z,17.81
2022-11-12T10:06:11.074Z,17.88
2022-11-12T10:09:32.180Z,17.76
2022-11-12T10:12:56.979Z,17.88
2022-11-12T10:16:20.369Z,17.85
2022-11-12T10:19:16.121Z,17.72
2022-11-12T10:22:28.878Z,17.73
2022-11-12T10:25:21.818Z,17.77
2022-11-12T10:28:28.370Z,17.71
2022-11-12T10:31:22.411Z,17.69
2022-11-12T10:34:28.810Z,17.75
2022-11-12T10:37:32.072Z,17.73
2022-11-12T10:40:26.230Z,17.74
2022-11-12T10:43:18.673Z,17.77
2022-11-12T10:46:20.470Z,17.87
2022-11-12T10:49:25.441Z,17.65
2022-11-12T10:52:25.920Z,17.63
2022-11-12T10:55:20.570Z,17.63
2022-11-12T10:58:26.356Z,17.70
2022-11-12T11:01:19.102Z,17.67
2022-11-12T11:04:18.559Z,17.74
2022-11-12T11:07:10.866Z,17.89
2022-11-12T11:10:02.137Z,17.67
2022-11-12T11:12:51.449Z,17.73
2022-11-12T11:15:41.898Z,17.48
2022-11-12T11:18:41.984Z,17.75
2022-11-12T11:21:55.241Z,17.65
2022-11-12T11:24:51.379Z,17.54
2022-11-12T11:27:49.702Z,17.50
2022-11-12T11:31:03.416Z,17.39
2022-11-12T11:34:00.184Z,17.42
2022-11-12T11:37:10.323Z,17.38
2022-11-12T11:40:02.754Z,17.38
2022-11-12T11:43:02.110Z,17.43
2022-11-12T11:46:03.193Z,17.22
2022-11-12T11:49:00.778Z,17.12
2022-11-12T11:51:56.090Z,17.13
2022-11-12T11:54:56.944Z,17.23
2022-11-12T11:58:06.564Z,17.33
2022-11-12T12:01:11.915Z,17.31
2022-11-12T12:04:17.682Z,17.28
2022-11-12T12:07:19.097Z,17.33
2022-11-12T12:10:21.842Z,17.36
2022-11-12T12:13:31.990Z,17.36
2022-11-12T12:16:59.281Z,17.51
2022-11-12T12:20:00.138Z,17.40
2022-11-12T12:22:51.916Z,17.47
2022-11-12T12:25:43.964Z,17.53
2022-11-12T12:28:49.365Z,17.55
2022-11-12T12:31:42.971Z,17.49
2022-11-12T12:34:45.464Z,17.52
2022-11-12T12:37:48.829Z,17.52
2022-11-12T12:40:43.363Z,17.59
2022-11-12T12:43:43.995Z,17.28
2022-11-12T12:46:35.110Z,17.33
2022-11-12T12:49:32.887Z,17.23
2022-11-12T12:52:21.756Z,17.41
2022-11-12T12:55:43.603Z,17.49
2022-11-12T12:58:42.390Z,17.39
2022-11-12T13:01:35.653Z,17.40
2022-11-12T13:04:59.841Z,17.34
2022-11-12T13:07:50.993Z,17.23
2022-11-12T13:10:46.728Z,17.23
2022-11-12T13:13:39.880Z,17.15
2022-11-12T13:16:52.840Z,17.15
2022-11-12T13:19:58.328Z,16.97
2022-11-12T13:22:51.051Z,17.14
2022-11-12T13:25:40.683Z,17.07
2022-11-12T13:28:29.780Z,17.11
2022-11-12T13:31:30.661Z,17.30
2022-11-12T13:34:25.166Z,17.27
2022-11-12T13:37:22.137Z,17.30
2022-11-12T13:40:18.564Z,17.17
2022-11-12T13:43:19.911Z,17.19
2022-11-12T13:46:24.531Z,17.18
2022-11-12T13:49:16.524Z,17.24
2022-11-12T13:52:07.938Z,17.11
2022-11-12T13:55:29.480Z,17.17
2022-11-12T13:58:31.891Z,17.07
2022-11-12T14:01:23.078Z,16.87
2022-11-12T14:04:25.335Z,16.86
2022-11-12T14:07:38.394Z,16.60
2022-11-12T14:10:44.875Z,16.67
2022-11-12T14:13:49.921Z,16.72
2022-11-12T14:17:19.541Z,16.66
2022-11-12T14:20:13.642Z,16.78
2022-11-12T14:23:24.805Z,16.75
2022-11-12T14:26:14.925Z,16.78
2022-11-12T14:29:03.895Z,16.78
2022-11-12T14:32:04.236Z,16.68
2022-11-12T14:34:53.109Z,16.65
2022-11-12T14:37:43.873Z,16.60
2022-11-12T14:40:35.318Z,16.63
2022-11-12T14:43:28.858Z,16.73
2022-11-12T14:46:35.623Z,16.75
2022-11-12T14:49:36.549Z,16.70
2022-11-12T14:52:33.501Z,16.68
2022-11-12T14:55:27.277Z,16.80
2022-11-12T14:58:18.346Z,16.61
2022-11-12T15:05:08.163Z,16.76
2022-11-12T15:08:08.319Z,16.85
2022-11-12T15:10:57.812Z,16.86
2022-11-12T15:13:47.511Z,16.76
2022-11-12T15:16:37.384Z,16.75
2022-11-12T15:19:28.598Z,16.84
2022-11-12T15:22:24.659Z,16.94
2022-11-12T15:25:33.374Z,16.94
2022-11-12T15:28:27.625Z,16.79
2022-11-12T15:31:22.589Z,16.77
2022-11-12T15:34:35.129Z,16.76
2022-11-12T15:37:28.030Z,16.82
2022-11-12T15:40:22.903Z,16.72
2022-11-12T15:43:24.259Z,16.61
2022-11-12T15:46:16.985Z,16.50
2022-11-12T15:49:12.699Z,16.52
2022-11-12T15:52:01.876Z,16.51
2022-11-12T15:54:51.203Z,16.52
2022-11-12T15:57:57.628Z,16.49
2022-11-12T16:00:47.131Z,16.47
2022-11-12T16:03:35.937Z,16.29
2022-11-12T16:06:24.660Z,16.33
2022-11-12T16:09:13.536Z,16.18
2022-11-12T16:12:02.739Z,16.38
2022-11-12T16:14:51.857Z,16.36
2022-11-12T16:17:40.754Z,16.41
2022-11-12T16:20:35.612Z,16.50
2022-11-12T16:23:24.492Z,16.42
2022-11-12T16:26:18.256Z,16.36
2022-11-12T16:29:16.686Z,16.45
2022-11-12T16:32:06.183Z,16.30
2022-11-12T16:35:00.783Z,16.45
2022-11-12T16:37:50.364Z,16.33
2022-11-12T16:40:39.788Z,16.23
2022-11-12T16:43:28.710Z,16.21
2022-11-12T16:46:27.719Z,16.04
2022-11-12T16:49:17.652Z,16.20
2022-11-12T16:52:07.273Z,16.17
2022-11-12T16:55:00.137Z,16.15
2022-11-12T16:57:52.726Z,16.14
2022-11-12T17:00:43.412Z,16.21
2022-11-12T17:03:32.091Z,16.08
2022-11-12T17:06:21.662Z,16.09
2022-11-12T17:09:13.186Z,16.15
2022-11-12T17:12:02.551Z,16.21
2022-11-12T17:14:51.473Z,16.15
2022-11-12T17:17:40.594Z,16.16
2022-11-12T17:20:30.107Z,16.07
2022-11-12T17:23:19.028Z,15.85
2022-11-12T17:26:11.174Z,15.77
2022-11-12T17:29:07.691Z,15.72
2022-11-12T17:31:56.854Z,15.88
2022-11-12T17:34:46.212Z,16.01
2022-11-12T17:37:35.442Z,16.03
2022-11-12T17:40:24.332Z,15.95
2022-11-12T17:43:13.301Z,15.86
2022-11-12T17:46:02.842Z,15.89
2022-11-12T17:48:51.894Z,16.04
2022-11-12T17:51:41.187Z,16.20
2022-11-12T17:54:30.438Z,16.29
2022-11-12T17:57:19.152Z,16.50
2022-11-12T18:00:08.737Z,16.63
2022-11-12T18:03:01.199Z,16.62
2022-11-12T18:05:59.054Z,16.84
2022-11-12T18:08:48.337Z,16.86
2022-11-12T18:11:49.396Z,16.96
2022-11-12T18:14:38.468Z,16.95
2022-11-12T18:17:27.427Z,16.84
2022-11-12T18:20:16.179Z,16.86
2022-11-12T18:23:04.850Z,16.89
2022-11-12T18:25:54.104Z,16.97
2022-11-12T18:29:00.731Z,16.84
2022-11-12T18:31:50.510Z,17.04
2022-11-12T18:34:43.274Z,16.82
2022-11-12T18:37:33.953Z,16.84
2022-11-12T18:40:24.201Z,16.95
2022-11-12T18:43:14.058Z,17.23
2022-11-12T18:46:03.248Z,17.27
2022-11-12T18:48:51.914Z,17.38
2022-11-12T18:51:41.177Z,17.40
2022-11-12T18:54:29.876Z,17.30
2022-11-12T18:57:19.069Z,17.48
2022-11-12T19:00:08.832Z,17.35
2022-11-12T19:02:57.911Z,17.28
2022-11-12T19:05:48.921Z,17.09
2022-11-12T19:08:37.988Z,17.16
2022-11-12T19:11:27.140Z,17.13
2022-11-12T19:14:16.023Z,17.20
2022-11-12T19:17:05.344Z,17.16
2022-11-12T19:19:54.296Z,17.32
2022-11-12T19:22:43.096Z,17.68
2022-11-12T19:25:31.826Z,17.87
2022-11-12T19:28:20.558Z,17.94
2022-11-12T19:31:18.196Z,17.99
2022-11-12T19:34:07.078Z,17.97
2022-11-12T19:37:11.820Z,17.91
2022-11-12T19:40:06.953Z,17.70
2022-11-12T19:42:55.926Z,18.33
2022-11-12T19:45:45.358Z,18.71
2022-11-12T19:48:34.681Z,19.13
2022-11-12T19:51:23.535Z,19.57
2022-11-12T19:54:12.679Z,19.79
2022-11-12T19:57:01.596Z,20.22
2022-11-12T19:59:50.419Z,19.98
2022-11-12T20:02:39.746Z,20.54
2022-11-12T20:05:28.696Z,20.31
2022-11-12T20:08:17.482Z,20.18
2022-11-12T20:11:06.794Z,20.54
2022-11-12T20:13:55.706Z,20.18
2022-11-12T20:16:44.657Z,20.49
2022-11-12T20:19:33.983Z,20.36
2022-11-12T20:22:22.610Z,20.33
2022-11-12T20:25:11.415Z,19.76
2022-11-12T20:28:00.862Z,20.07
2022-11-12T20:30:50.061Z,19.75
2022-11-12T20:33:42.244Z,20.02
2022-11-12T20:36:32.927Z,19.95
2022-11-12T20:39:21.718Z,19.91
2022-11-12T20:42:10.973Z,20.19
2022-11-12T20:45:00.337Z,20.05
2022-11-12T20:47:49.126Z,20.02
2022-11-12T20:50:38.418Z,19.70
2022-11-12T20:53:28.458Z,19.50
2022-11-12T20:56:20.063Z,19.47
2022-11-12T20:59:08.864Z,19.49
2022-11-12T21:01:59.206Z,19.44
2022-11-12T21:04:49.998Z,20.88
2022-11-12T21:07:39.142Z,21.52
2022-11-12T21:10:28.581Z,21.42
2022-11-12T21:13:17.765Z,20.38
2022-11-12T21:16:08.093Z,19.84
2022-11-12T21:18:57.515Z,19.53
2022-11-12T21:21:46.976Z,19.21
2022-11-12T21:24:35.895Z,19.31
2022-11-12T21:27:25.081Z,20.22
2022-11-12T21:30:15.012Z,20.33
2022-11-12T21:33:04.138Z,19.91
2022-11-12T21:35:55.954Z,20.53
2022-11-12T21:38:44.407Z,20.38
2022-11-12T21:41:33.634Z,20.10
2022-11-12T21:44:22.797Z,19.87
2022-11-12T21:47:11.552Z,19.43
2022-11-12T21:50:01.195Z,19.58
2022-11-12T21:52:49.912Z,20.05
2022-11-12T21:55:39.359Z,21.16
2022-11-12T21:58:31.018Z,21.69
2022-11-12T22:01:22.537Z,22.32
2022-11-12T22:04:16.999Z,22.12
2022-11-12T22:07:07.480Z,21.75
2022-11-12T22:09:56.999Z,21.52
2022-11-12T22:13:12.003Z,22.28
2022-11-12T22:15:55.476Z,22.59
2022-11-12T22:18:45.260Z,22.39
2022-11-12T22:21:39.735Z,22.73
2022-11-12T22:24:29.429Z,22.46
2022-11-12T22:27:18.286Z,21.56
2022-11-12T22:30:07.910Z,22.95
2022-11-12T22:32:56.896Z,23.06
2022-11-12T22:35:45.775Z,22.47
2022-11-12T22:38:47.911Z,22.27
2022-11-12T22:41:36.231Z,22.75
2022-11-12T22:44:25.014Z,23.02
2022-11-12T22:47:14.251Z,23.87
2022-11-12T22:50:03.099Z,23.91
2022-11-12T22:52:52.714Z,23.15
2022-11-12T22:55:42.108Z,24.16
2022-11-12T22:58:31.711Z,24.05
2022-11-12T23:01:32.100Z,24.23
2022-11-12T23:04:20.829Z,24.15
2022-11-12T23:07:10.062Z,24.16
2022-11-12T23:09:59.401Z,23.82
2022-11-12T23:12:48.403Z,24.11
2022-11-12T23:15:37.499Z,24.71
2022-11-12T23:18:26.537Z,24.31
2022-11-12T23:21:18.504Z,24.11
2022-11-12T23:24:07.140Z,23.69
2022-11-12T23:26:56.000Z,23.49
2022-11-12T23:29:45.231Z,22.77
2022-11-12T23:32:34.658Z,22.28
2022-11-12T23:35:23.488Z,24.02
2022-11-12T23:38:12.446Z,23.60
2022-11-12T23:41:01.637Z,23.80
2022-11-12T23:43:51.370Z,23.73
2022-11-12T23:46:40.617Z,24.45
2022-11-12T23:49:30.117Z,25.10
2022-11-12T23:52:19.106Z,25.06
2022-11-12T23:55:08.626Z,25.04
2022-11-12T23:57:57.522Z,25.67
